createdAt,value
2022-09-07T00:02:32.304Z,0.90
2022-09-07T00:05:19.350Z,0.93
2022-09-07T00:08:06.623Z,0.80
2022-09-07T00:10:54.744Z,0.90
2022-09-07T00:13:43.768Z,0.80
2022-09-07T00:16:31.882Z,0.90
2022-09-07T00:19:19.240Z,0.90
2022-09-07T00:22:06.266Z,0.80
2022-09-07T00:24:53.362Z,0.98
2022-09-07T00:27:42.907Z,0.90
2022-09-07T00:30:31.066Z,1.20
2022-09-07T00:33:18.331Z,1.50
2022-09-07T00:36:05.694Z,1.57
2022-09-07T00:38:53.157Z,1.38
2022-09-07T00:41:41.647Z,1.30
2022-09-07T00:44:56.029Z,2.10
2022-09-07T00:47:48.084Z,1.50
2022-09-07T00:50:37.180Z,1.20
2022-09-07T00:53:27.654Z,1.15
2022-09-07T00:56:14.898Z,1.13
2022-09-07T00:59:04.522Z,1.00
2022-09-07T01:01:54.378Z,1.20
2022-09-07T01:04:43.350Z,1.38
2022-09-07T01:07:30.669Z,1.05
2022-09-07T01:10:18.853Z,1.00
2022-09-07T01:13:06.476Z,1.50
2022-09-07T01:15:58.447Z,0.93
2022-09-07T01:18:49.635Z,1.20
2022-09-07T01:21:45.559Z,1.13
2022-09-07T01:24:39.703Z,1.17
2022-09-07T01:27:37.687Z,1.13
2022-09-07T01:30:26.917Z,1.02
2022-09-07T01:33:20.611Z,1.00
2022-09-07T01:36:12.293Z,1.00
2022-09-07T01:39:01.794Z,1.60
2022-09-07T01:41:51.041Z,1.00
2022-09-07T01:44:43.666Z,1.20
2022-09-07T01:47:32.070Z,1.40
2022-09-07T01:50:20.590Z,0.80
2022-09-07T01:53:10.897Z,0.80
2022-09-07T01:56:00.512Z,1.20
2022-09-07T01:58:51.005Z,0.98
2022-09-07T02:01:41.678Z,1.15
2022-09-07T02:04:32.656Z,1.05
2022-09-07T02:07:24.951Z,0.88
2022-09-07T02:10:14.918Z,0.88
2022-09-07T02:13:06.849Z,1.70
2022-09-07T02:15:57.960Z,1.10
2022-09-07T02:18:47.373Z,1.35
2022-09-07T02:21:36.599Z,1.30
2022-09-07T02:24:26.518Z,1.23
2022-09-07T02:27:16.640Z,1.40
2022-09-07T02:30:03.664Z,1.20
2022-09-07T02:32:50.920Z,1.20
2022-09-07T02:35:48.248Z,1.10
2022-09-07T02:38:35.983Z,1.15
2022-09-07T02:41:34.074Z,0.97
2022-09-07T02:44:22.122Z,1.00
2022-09-07T02:47:21.025Z,1.10
2022-09-07T02:50:17.006Z,0.68
2022-09-07T02:53:15.166Z,0.88
2022-09-07T02:56:08.344Z,1.20
2022-09-07T02:58:58.877Z,0.98
2022-09-07T03:01:50.184Z,0.82
2022-09-07T03:04:43.140Z,1.25
2022-09-07T03:07:35.767Z,1.05
2022-09-07T03:10:25.441Z,1.05
2022-09-07T03:13:21.195Z,1.02
2022-09-07T03:16:07.919Z,1.02
2022-09-07T03:18:54.959Z,1.00
2022-09-07T03:21:42.053Z,0.90
2022-09-07T03:24:29.054Z,0.80
2022-09-07T03:27:19.772Z,1.02
2022-09-07T03:30:07.575Z,1.10
2022-09-07T03:32:54.578Z,1.42
2022-09-07T03:35:41.611Z,0.70
2022-09-07T03:38:28.773Z,1.20
2022-09-07T03:41:16.053Z,0.90
2022-09-07T03:44:05.922Z,0.95
2022-09-07T03:46:52.986Z,1.00
2022-09-07T03:49:40.218Z,0.90
2022-09-07T03:52:27.318Z,0.90
2022-09-07T03:55:14.537Z,0.85
2022-09-07T03:58:01.643Z,0.98
2022-09-07T04:00:50.054Z,0.87
2022-09-07T04:03:39.318Z,0.90
2022-09-07T04:06:27.163Z,0.98
2022-09-07T04:09:14.967Z,1.08
2022-09-07T04:12:02.925Z,1.38
2022-09-07T04:14:49.932Z,1.10
2022-09-07T04:17:38.490Z,0.93
2022-09-07T04:20:25.645Z,0.80
2022-09-07T04:23:12.857Z,1.00
2022-09-07T04:25:59.878Z,1.13
2022-09-07T04:28:47.195Z,0.80
2022-09-07T04:31:34.733Z,1.00
2022-09-07T04:34:23.224Z,1.30
2022-09-07T04:37:10.259Z,1.30
2022-09-07T04:39:57.421Z,1.25
2022-09-07T04:42:44.714Z,1.05
2022-09-07T04:45:31.833Z,1.10
2022-09-07T04:48:18.898Z,1.02
2022-09-07T04:51:07.838Z,1.10
2022-09-07T04:53:55.717Z,1.00
2022-09-07T04:56:43.052Z,1.20
2022-09-07T04:59:30.551Z,1.00
2022-09-07T05:02:17.976Z,1.00
2022-09-07T05:05:05.033Z,1.20
2022-09-07T05:07:53.559Z,1.23
2022-09-07T05:10:40.706Z,1.10
2022-09-07T05:13:27.645Z,1.00
2022-09-07T05:16:15.500Z,1.02
2022-09-07T05:19:04.058Z,0.82
2022-09-07T05:21:51.229Z,0.93
2022-09-07T05:24:42.739Z,0.93
2022-09-07T05:27:29.878Z,0.95
2022-09-07T05:36:32.300Z,1.10
2022-09-07T05:39:21.127Z,0.80
2022-09-07T05:42:09.787Z,1.17
2022-09-07T05:44:56.915Z,0.80
2022-09-07T05:47:43.864Z,1.20
2022-09-07T05:50:31.068Z,0.85
2022-09-07T05:53:17.950Z,1.20
2022-09-07T05:56:12.100Z,0.90
2022-09-07T05:59:00.558Z,1.02
2022-09-07T06:01:47.702Z,0.77
2022-09-07T06:04:35.066Z,0.80
2022-09-07T06:07:23.134Z,0.90
2022-09-07T06:13:17.880Z,1.80
2022-09-07T06:16:07.505Z,1.17
2022-09-07T06:18:54.790Z,0.80
2022-09-07T06:21:41.743Z,1.00
2022-09-07T06:24:29.879Z,0.93
2022-09-07T06:27:17.120Z,0.80
2022-09-07T06:30:07.442Z,0.80
2022-09-07T06:32:56.064Z,0.90
2022-09-07T06:35:45.799Z,0.95
2022-09-07T06:38:33.620Z,0.85
2022-09-07T06:44:28.360Z,0.60
2022-09-07T06:47:15.689Z,0.65
2022-09-07T06:50:04.149Z,0.80
2022-09-07T06:55:58.546Z,1.00
2022-09-07T06:58:45.972Z,1.20
2022-09-07T07:01:33.777Z,0.82
2022-09-07T07:04:20.750Z,0.75
2022-09-07T07:07:11.045Z,0.70
2022-09-07T07:09:58.407Z,0.77
2022-09-07T07:15:31.793Z,0.60
2022-09-07T07:18:21.209Z,0.75
2022-09-07T07:21:09.874Z,0.70
2022-09-07T07:23:57.888Z,0.75
2022-09-07T07:26:48.621Z,0.60
2022-09-07T07:29:35.850Z,0.88
2022-09-07T07:32:23.236Z,0.85
2022-09-07T07:35:11.302Z,1.10
2022-09-07T07:44:13.930Z,0.55
2022-09-07T07:47:00.955Z,0.80
2022-09-07T07:49:48.281Z,0.88
2022-09-07T07:53:41.248Z,0.73
2022-09-07T07:55:43.252Z,0.68
2022-09-07T07:58:32.903Z,0.75
2022-09-07T08:01:21.471Z,0.80
2022-09-07T08:04:15.760Z,0.95
2022-09-07T08:07:09.171Z,1.05
2022-09-07T08:09:57.061Z,0.80
2022-09-07T08:12:44.281Z,0.63
2022-09-07T08:15:33.006Z,0.65
2022-09-07T08:18:20.124Z,0.93
2022-09-07T08:21:08.289Z,0.70
2022-09-07T08:23:55.551Z,0.70
2022-09-07T08:26:42.524Z,1.27
2022-09-07T08:29:33.511Z,0.60
2022-09-07T08:32:23.169Z,0.70
2022-09-07T08:35:10.595Z,0.98
2022-09-07T08:37:57.692Z,0.60
2022-09-07T08:40:44.717Z,0.82
2022-09-07T08:43:49.111Z,0.80
2022-09-07T08:46:38.373Z,0.70
2022-09-07T08:49:32.588Z,0.80
2022-09-07T08:52:23.570Z,0.70
2022-09-07T08:55:14.661Z,0.75
2022-09-07T08:58:18.099Z,0.50
2022-09-07T09:01:32.283Z,0.50
2022-09-07T09:04:24.107Z,0.73
2022-09-07T09:07:20.617Z,0.60
2022-09-07T09:10:15.463Z,0.60
2022-09-07T09:13:05.573Z,0.70
2022-09-07T09:16:00.373Z,0.50
2022-09-07T09:18:59.657Z,0.77
2022-09-07T09:21:47.481Z,0.75
2022-09-07T09:24:37.536Z,1.00
2022-09-07T09:27:24.884Z,1.20
2022-09-07T09:30:20.174Z,0.95
2022-09-07T09:33:14.999Z,0.70
2022-09-07T09:36:03.139Z,1.42
2022-09-07T09:38:50.731Z,0.88
2022-09-07T09:41:40.828Z,1.00
2022-09-07T09:44:39.534Z,1.00
2022-09-07T09:47:31.386Z,1.40
2022-09-07T09:53:29.970Z,1.38
2022-09-07T09:56:17.009Z,1.38
2022-09-07T10:05:41.166Z,0.90
2022-09-07T10:08:32.169Z,1.17
2022-09-07T10:11:18.969Z,1.33
2022-09-07T10:14:05.983Z,1.73
2022-09-07T10:16:55.766Z,0.93
2022-09-07T10:19:44.301Z,1.23
2022-09-07T10:22:35.677Z,1.20
2022-09-07T10:25:31.139Z,1.20
2022-09-07T10:28:22.546Z,1.33
2022-09-07T10:31:15.362Z,1.17
2022-09-07T10:37:20.839Z,1.00
2022-09-07T10:40:16.277Z,1.05
2022-09-07T10:43:21.790Z,1.02
2022-09-07T10:49:41.294Z,1.20
2022-09-07T10:52:53.345Z,1.20
2022-09-07T10:55:42.026Z,1.33
2022-09-07T11:01:44.801Z,0.80
2022-09-07T11:04:44.307Z,0.98
2022-09-07T11:07:43.092Z,0.60
2022-09-07T11:10:34.128Z,1.35
2022-09-07T11:13:23.545Z,0.80
2022-09-07T11:19:37.729Z,0.95
2022-09-07T11:22:33.704Z,0.85
2022-09-07T11:25:30.364Z,0.43
2022-09-07T11:28:19.301Z,0.73
2022-09-07T11:31:09.234Z,0.80
2022-09-07T11:37:08.813Z,0.47
2022-09-07T11:40:00.678Z,0.47
2022-09-07T11:42:51.613Z,0.50
2022-09-07T11:45:41.785Z,0.60
2022-09-07T11:48:31.110Z,0.52
2022-09-07T11:51:21.522Z,0.65
2022-09-07T11:54:15.323Z,0.52
2022-09-07T11:57:07.491Z,0.70
2022-09-07T12:00:00.707Z,0.40
2022-09-07T12:03:14.534Z,0.30
2022-09-07T12:06:08.807Z,0.52
2022-09-07T12:09:04.821Z,0.60
2022-09-07T12:12:10.614Z,0.98
2022-09-07T12:15:11.426Z,0.43
2022-09-07T12:18:21.568Z,0.73
2022-09-07T12:21:32.863Z,0.70
2022-09-07T12:24:48.537Z,0.60
2022-09-07T12:27:40.752Z,0.73
2022-09-07T12:30:54.820Z,0.52
2022-09-07T12:33:42.453Z,0.50
2022-09-07T12:36:43.396Z,0.70
2022-09-07T12:39:32.283Z,0.60
2022-09-07T12:42:32.644Z,0.50
2022-09-07T12:45:47.316Z,0.73
2022-09-07T12:48:47.123Z,0.77
2022-09-07T12:54:59.680Z,0.38
2022-09-07T12:57:59.507Z,0.35
2022-09-07T13:00:52.615Z,0.47
2022-09-07T13:03:58.437Z,0.50
2022-09-07T13:07:03.002Z,0.50
2022-09-07T13:09:58.728Z,0.70
2022-09-07T13:12:57.470Z,0.90
2022-09-07T13:15:45.394Z,0.50
2022-09-07T13:18:43.260Z,0.80
2022-09-07T13:21:35.133Z,0.45
2022-09-07T13:24:53.079Z,0.30
2022-09-07T13:27:45.160Z,0.90
2022-09-07T13:30:38.977Z,0.35
2022-09-07T13:33:52.890Z,0.50
2022-09-07T13:36:42.517Z,0.57
2022-09-07T13:39:33.125Z,0.60
2022-09-07T13:42:21.438Z,0.30
2022-09-07T13:45:23.446Z,0.50
2022-09-07T13:48:15.613Z,0.45
2022-09-07T13:51:07.314Z,0.52
2022-09-07T13:54:02.286Z,0.47
2022-09-07T13:56:53.955Z,0.63
2022-09-07T13:59:44.967Z,0.75
2022-09-07T14:02:34.116Z,0.47
2022-09-07T14:05:23.795Z,0.50
2022-09-07T14:08:24.885Z,0.40
2022-09-07T14:11:18.992Z,0.35
2022-09-07T14:14:14.768Z,0.47
2022-09-07T14:17:04.268Z,0.43
2022-09-07T14:19:53.534Z,0.40
2022-09-07T14:22:41.584Z,0.60
2022-09-07T14:25:28.562Z,0.50
2022-09-07T14:28:31.707Z,0.40
2022-09-07T14:31:20.777Z,0.57
2022-09-07T14:34:10.982Z,0.45
2022-09-07T14:37:01.681Z,0.52
2022-09-07T14:39:52.676Z,0.52
2022-09-07T14:42:43.371Z,0.57
2022-09-07T14:45:35.187Z,0.98
2022-09-07T14:48:32.422Z,0.47
2022-09-07T14:51:32.734Z,0.60
2022-09-07T14:54:24.315Z,0.80
2022-09-07T14:57:27.578Z,0.50
2022-09-07T15:00:21.786Z,0.70
2022-09-07T15:03:29.235Z,0.70
2022-09-07T15:09:42.625Z,1.00
2022-09-07T15:12:38.140Z,1.20
2022-09-07T15:15:27.151Z,0.80
2022-09-07T15:18:32.235Z,0.40
2022-09-07T15:21:20.975Z,0.93
2022-09-07T15:24:08.127Z,0.50
2022-09-07T15:27:02.903Z,0.50
2022-09-07T15:29:50.143Z,0.60
2022-09-07T15:32:37.375Z,0.87
2022-09-07T15:35:24.267Z,0.75
2022-09-07T15:41:24.169Z,0.50
2022-09-07T15:44:11.250Z,0.40
2022-09-07T15:50:06.319Z,0.45
2022-09-07T15:52:53.419Z,0.43
2022-09-07T15:55:42.032Z,0.65
2022-09-07T15:58:28.978Z,0.50
2022-09-07T16:04:28.227Z,0.40
2022-09-07T16:07:17.186Z,0.50
2022-09-07T16:10:06.106Z,0.40
2022-09-07T16:13:03.944Z,0.52
2022-09-07T16:15:59.946Z,0.60
2022-09-07T16:18:47.427Z,0.70
2022-09-07T16:21:34.343Z,0.80
2022-09-07T16:24:21.282Z,0.50
2022-09-07T16:27:10.422Z,0.60
2022-09-07T16:29:58.694Z,0.30
2022-09-07T16:32:45.873Z,0.60
2022-09-07T16:35:33.319Z,0.63
2022-09-07T16:41:29.160Z,0.50
2022-09-07T16:44:16.372Z,0.63
2022-09-07T16:47:04.765Z,0.57
2022-09-07T16:49:51.944Z,0.70
2022-09-07T16:52:39.289Z,0.65
2022-09-07T16:55:26.287Z,0.73
2022-09-07T17:01:21.277Z,0.73
2022-09-07T17:04:11.411Z,0.43
2022-09-07T17:06:58.840Z,0.93
2022-09-07T17:09:46.345Z,0.77
2022-09-07T17:12:33.298Z,0.60
2022-09-07T17:15:20.339Z,0.50
2022-09-07T17:18:07.417Z,0.55
2022-09-07T17:20:59.634Z,0.60
2022-09-07T17:23:54.275Z,0.67
2022-09-07T17:26:42.827Z,0.30
2022-09-07T17:29:32.868Z,0.50
2022-09-07T17:32:24.617Z,0.50
2022-09-07T17:35:12.442Z,0.80
2022-09-07T17:38:01.410Z,0.40
2022-09-07T17:40:48.304Z,0.40
2022-09-07T17:43:39.303Z,0.50
2022-09-07T17:46:31.575Z,0.60
2022-09-07T17:49:20.510Z,0.70
2022-09-07T17:52:07.614Z,0.40
2022-09-07T17:54:57.828Z,0.95
2022-09-07T17:57:44.837Z,0.40
2022-09-07T18:00:32.027Z,0.50
2022-09-07T18:03:18.875Z,0.55
2022-09-07T18:06:06.433Z,0.63
2022-09-07T18:08:53.430Z,0.57
2022-09-07T18:11:45.555Z,0.32
2022-09-07T18:14:33.963Z,0.30
2022-09-07T18:17:21.187Z,0.60
2022-09-07T18:20:09.543Z,0.40
2022-09-07T18:22:57.808Z,0.40
2022-09-07T18:25:46.188Z,0.60
2022-09-07T18:31:41.935Z,0.50
2022-09-07T18:34:30.841Z,0.52
2022-09-07T18:37:19.396Z,0.50
2022-09-07T18:40:10.918Z,0.60
2022-09-07T18:42:58.318Z,0.60
2022-09-07T18:45:46.931Z,0.65
2022-09-07T18:48:34.426Z,0.50
2022-09-07T18:51:21.588Z,0.67
2022-09-07T18:54:08.514Z,0.70
2022-09-07T18:56:58.159Z,0.60
2022-09-07T18:59:45.471Z,0.40
2022-09-07T19:02:34.445Z,0.82
2022-09-07T19:08:31.405Z,0.40
2022-09-07T19:11:19.952Z,0.60
2022-09-07T19:14:06.963Z,0.50
2022-09-07T19:16:54.220Z,0.70
2022-09-07T19:19:42.947Z,0.60
2022-09-07T19:22:30.186Z,0.60
2022-09-07T19:25:19.306Z,0.60
2022-09-07T19:28:06.469Z,0.70
2022-09-07T19:30:53.727Z,0.50
2022-09-07T19:33:40.729Z,0.75
2022-09-07T19:36:29.752Z,0.68
2022-09-07T19:39:16.372Z,1.10
2022-09-07T19:42:04.903Z,0.70
2022-09-07T19:44:52.142Z,0.80
2022-09-07T19:47:39.182Z,0.60
2022-09-07T19:50:25.995Z,0.85
2022-09-07T19:53:14.788Z,0.90
2022-09-07T19:56:05.959Z,0.57
2022-09-07T19:58:52.984Z,0.57
2022-09-07T20:01:46.363Z,0.60
2022-09-07T20:04:33.890Z,0.40
2022-09-07T20:07:21.458Z,0.57
2022-09-07T20:10:10.515Z,0.40
2022-09-07T20:12:57.222Z,0.50
2022-09-07T20:15:44.403Z,0.88
2022-09-07T20:18:31.213Z,0.77
2022-09-07T20:21:19.364Z,0.50
2022-09-07T20:24:06.515Z,0.40
2022-09-07T20:26:55.937Z,0.52
2022-09-07T20:29:43.007Z,0.47
2022-09-07T20:32:31.072Z,0.70
2022-09-07T20:35:18.266Z,0.55
2022-09-07T20:38:05.662Z,0.52
2022-09-07T20:40:53.219Z,0.60
2022-09-07T20:43:44.459Z,0.50
2022-09-07T20:46:34.104Z,0.70
2022-09-07T20:49:21.175Z,0.50
2022-09-07T20:52:08.184Z,0.43
2022-09-07T20:54:55.354Z,0.40
2022-09-07T20:57:42.574Z,0.43
2022-09-07T21:00:32.671Z,0.65
2022-09-07T21:03:20.122Z,0.43
2022-09-07T21:06:09.814Z,0.40
2022-09-07T21:08:57.678Z,0.70
2022-09-07T21:11:49.053Z,0.90
2022-09-07T21:18:02.691Z,0.50
2022-09-07T21:21:18.415Z,0.47
2022-09-07T21:24:04.048Z,0.52
2022-09-07T21:26:52.916Z,0.90
2022-09-07T21:29:40.158Z,0.40
2022-09-07T21:32:27.244Z,1.10
2022-09-07T21:35:15.544Z,0.60
2022-09-07T21:38:02.860Z,0.50
2022-09-07T21:40:50.310Z,0.55
2022-09-07T21:43:37.420Z,0.63
2022-09-07T21:46:24.197Z,0.70
2022-09-07T21:49:11.209Z,0.60
2022-09-07T21:51:59.395Z,0.70
2022-09-07T21:54:46.173Z,0.50
2022-09-07T21:57:33.114Z,0.50
2022-09-07T22:00:22.709Z,0.37
2022-09-07T22:03:09.604Z,0.70
2022-09-07T22:05:56.661Z,0.70
2022-09-07T22:08:45.008Z,0.50
2022-09-07T22:11:32.061Z,0.60
2022-09-07T22:14:18.939Z,0.60
2022-09-07T22:17:05.829Z,0.47
2022-09-07T22:19:53.057Z,0.80
2022-09-07T22:22:40.108Z,0.57
2022-09-07T22:25:28.651Z,0.50
2022-09-07T22:28:15.553Z,0.63
2022-09-07T22:31:09.542Z,0.60
2022-09-07T22:33:57.720Z,0.52
2022-09-07T22:36:45.715Z,0.70
2022-09-07T22:39:33.105Z,0.63
2022-09-07T22:42:21.329Z,0.50
2022-09-07T22:45:09.013Z,0.50
2022-09-07T22:47:56.098Z,0.63
2022-09-07T22:50:43.063Z,0.55
2022-09-07T22:53:30.938Z,0.68
2022-09-07T22:56:21.934Z,0.80
2022-09-07T22:59:10.822Z,0.80
2022-09-07T23:01:57.839Z,0.60
2022-09-07T23:04:45.069Z,0.60
2022-09-07T23:07:33.301Z,0.60
2022-09-07T23:10:20.464Z,0.60
2022-09-07T23:13:08.961Z,0.80
2022-09-07T23:15:57.361Z,0.60
2022-09-07T23:18:44.879Z,0.57
2022-09-07T23:21:31.945Z,0.60
2022-09-07T23:24:19.700Z,0.50
2022-09-07T23:27:06.749Z,0.50
2022-09-07T23:29:53.751Z,0.50
2022-09-07T23:32:45.469Z,0.77
2022-09-07T23:35:37.689Z,0.88
2022-09-07T23:38:24.945Z,0.60
2022-09-07T23:41:13.831Z,0.70
2022-09-07T23:44:01.300Z,0.60
2022-09-07T23:46:48.270Z,1.27
2022-09-07T23:49:36.592Z,0.73
2022-09-07T23:52:23.712Z,0.90
2022-09-07T23:55:11.242Z,0.80
2022-09-07T23:57:58.049Z,0.73
